Time;durP1;ratioP1;P1;durP2;ratioP2;P2;SDS_P1;SDS_P2;PMS_P1;PMS_P2;Temp;Humidity;BMP_temperature;BMP_pressure;BME280_temperature;BME280_humidity;BME280_pressure;Samples;Min_cycle;Max_cycle;Signal;HPM_P1;HPM_P2
2024/01/09 05:02:30;;;;;;;3.67;3.50;;;-9.40;97.30;;;;;;5105163;23;20904;-86
2024/01/09 05:04:55;;;;;;;2.20;2.03;;;-9.40;97.30;;;;;;4957218;28;20462;-86
2024/01/09 05:07:21;;;;;;;1.20;1.10;;;-9.50;97.30;;;;;;4949033;28;20239;-86
2024/01/09 05:09:46;;;;;;;1.50;1.40;;;-9.50;97.30;;;;;;4945717;28;20665;-86
2024/01/09 05:12:12;;;;;;;1.20;1.10;;;-9.50;97.30;;;;;;4949306;28;20210;-85
2024/01/09 05:14:37;;;;;;;2.03;1.90;;;-9.50;97.30;;;;;;4945778;29;20195;-85
2024/01/09 05:17:03;;;;;;;1.30;1.20;;;-9.50;97.30;;;;;;4938068;29;20651;-87
2024/01/09 05:19:28;;;;;;;3.07;1.93;;;-9.50;97.30;;;;;;4931900;29;20190;-88
2024/01/09 05:21:54;;;;;;;1.93;1.83;;;-9.60;97.30;;;;;;4939620;29;20217;-88
2024/01/09 05:24:19;;;;;;;1.53;1.43;;;-9.60;97.30;;;;;;4937389;29;20449;-85
2024/01/09 05:26:45;;;;;;;1.53;1.43;;;-9.60;97.30;;;;;;4939914;29;20201;-85
2024/01/09 05:29:10;;;;;;;1.30;1.20;;;-9.60;97.30;;;;;;4924201;29;20288;-85
2024/01/09 05:31:42;;;;;;;1.90;1.80;;;-9.60;97.30;;;;;;4934931;28;20208;-86
2024/01/09 05:34:08;;;;;;;1.20;1.10;;;-9.60;97.30;;;;;;4943332;29;20538;-87
2024/01/09 05:36:33;;;;;;;1.10;1.00;;;-9.60;97.30;;;;;;4935039;29;20439;-86
2024/01/09 05:38:59;;;;;;;1.20;1.10;;;-9.60;97.30;;;;;;4930299;29;20791;-86
2024/01/09 05:41:24;;;;;;;2.90;2.70;;;-9.70;97.30;;;;;;4931205;29;20214;-86
2024/01/09 05:43:50;;;;;;;1.50;1.40;;;-9.70;97.30;;;;;;4933211;29;20188;-85
2024/01/09 05:46:16;;;;;;;1.30;1.20;;;-9.70;97.30;;;;;;4936573;29;20240;-81
2024/01/09 05:48:42;;;;;;;1.30;1.20;;;-9.70;97.30;;;;;;4943904;29;20183;-84
2024/01/09 05:51:09;;;;;;;1.40;1.30;;;-9.70;97.30;;;;;;4944006;29;20572;-85
2024/01/09 05:53:35;;;;;;;1.50;1.40;;;-9.70;97.30;;;;;;4939210;29;20593;-87
2024/01/09 05:56:01;;;;;;;1.00;0.90;;;-9.70;97.30;;;;;;4938940;29;20465;-84
2024/01/09 05:58:26;;;;;;;1.77;1.67;;;-9.70;97.30;;;;;;4940629;29;20524;-87
2024/01/09 06:00:52;;;;;;;1.50;1.40;;;-9.70;97.30;;;;;;4938413;29;20616;-87
2024/01/09 06:03:17;;;;;;;1.70;1.60;;;-9.70;97.30;;;;;;4937249;29;20196;-86
2024/01/09 06:05:43;;;;;;;1.03;0.93;;;-9.70;97.30;;;;;;4950315;29;20201;-87
2024/01/09 06:08:08;;;;;;;1.40;1.30;;;-9.70;97.30;;;;;;4939976;29;20190;-87
2024/01/09 06:10:35;;;;;;;1.30;1.20;;;-9.70;97.30;;;;;;4937184;29;20215;-86
2024/01/09 06:13:00;;;;;;;1.97;1.87;;;-9.70;97.30;;;;;;4939064;29;20522;-86
2024/01/09 06:15:26;;;;;;;1.40;1.30;;;-9.70;97.30;;;;;;4956064;28;20188;-87
2024/01/09 06:17:53;;;;;;;1.20;1.10;;;-9.80;97.30;;;;;;4930091;29;20188;-87
2024/01/09 06:20:19;;;;;;;1.77;1.67;;;-9.80;97.30;;;;;;4937672;29;20212;-86
2024/01/09 06:22:45;;;;;;;6.00;3.30;;;-9.80;97.30;;;;;;4938431;29;20432;-85
2024/01/09 06:25:13;;;;;;;4.10;2.20;;;-9.80;97.30;;;;;;4934518;29;20281;-85
2024/01/09 06:27:39;;;;;;;6.30;3.03;;;-9.80;97.30;;;;;;4940146;29;20258;-86
2024/01/09 06:30:06;;;;;;;2.40;2.20;;;-9.80;97.30;;;;;;4938383;29;20914;-88
2024/01/09 06:32:32;;;;;;;1.50;1.40;;;-9.80;97.30;;;;;;4942462;29;20204;-84
2024/01/09 06:34:58;;;;;;;2.17;2.00;;;-9.80;97.30;;;;;;4949282;29;20439;-87
2024/01/09 06:37:23;;;;;;;1.57;1.47;;;-9.80;97.30;;;;;;4940204;29;20459;-85
2024/01/09 06:39:49;;;;;;;1.20;1.10;;;-9.90;97.30;;;;;;4939720;29;20278;-86
2024/01/09 06:42:15;;;;;;;1.60;1.50;;;-9.90;97.30;;;;;;4953482;29;20308;-84
2024/01/09 06:44:40;;;;;;;1.50;1.40;;;-9.90;97.30;;;;;;4938711;29;20197;-86
2024/01/09 06:47:06;;;;;;;1.77;1.67;;;-9.90;97.30;;;;;;4942271;29;20864;-83
2024/01/09 06:49:31;;;;;;;1.30;1.20;;;-9.90;97.30;;;;;;4947335;29;20180;-83
2024/01/09 06:51:57;;;;;;;1.80;1.27;;;-9.90;97.30;;;;;;4950210;29;20203;-86
2024/01/09 06:54:22;;;;;;;1.20;1.10;;;-9.90;97.30;;;;;;4944971;29;20192;-85
2024/01/09 06:56:48;;;;;;;1.20;1.10;;;-9.90;97.30;;;;;;4942432;29;20204;-86
2024/01/09 06:59:13;;;;;;;2.23;2.03;;;-9.90;97.30;;;;;;4937107;29;20200;-88
2024/01/09 07:01:39;;;;;;;2.07;1.93;;;-9.90;97.30;;;;;;4942791;29;20282;-85
2024/01/09 07:04:08;;;;;;;1.73;1.63;;;-9.90;97.30;;;;;;4940912;29;20203;-84
2024/01/09 07:06:34;;;;;;;1.47;1.37;;;-9.90;97.30;;;;;;4941265;29;20607;-86
2024/01/09 07:09:00;;;;;;;1.10;1.00;;;-9.90;97.30;;;;;;4939929;29;20427;-85
2024/01/09 07:11:25;;;;;;;1.30;1.20;;;-9.90;97.30;;;;;;4941641;29;20304;-85
2024/01/09 07:13:51;;;;;;;1.83;1.73;;;-9.90;97.30;;;;;;4921808;29;20457;-87
2024/01/09 07:16:17;;;;;;;6.33;3.40;;;-9.90;97.30;;;;;;4929299;29;20196;-83
2024/01/09 07:18:44;;;;;;;1.60;1.50;;;-10.00;97.30;;;;;;4939846;29;20192;-86
2024/01/09 07:21:10;;;;;;;1.47;1.37;;;-9.90;97.30;;;;;;4928830;29;20208;-86
2024/01/09 07:23:35;;;;;;;1.30;1.20;;;-9.90;97.30;;;;;;4933904;29;20887;-86
2024/01/09 07:26:01;;;;;;;1.10;1.00;;;-10.00;97.30;;;;;;4928397;29;20468;-86
2024/01/09 07:28:27;;;;;;;1.23;1.13;;;-10.00;97.30;;;;;;4942201;29;20294;-86
2024/01/09 07:30:54;;;;;;;1.83;1.73;;;-10.00;97.30;;;;;;4938239;29;20619;-87
2024/01/09 07:33:20;;;;;;;1.20;1.10;;;-10.00;97.30;;;;;;4937681;29;20443;-86
2024/01/09 07:35:45;;;;;;;1.20;1.10;;;-10.00;97.30;;;;;;4942472;28;20778;-87
2024/01/09 07:38:11;;;;;;;3.80;3.00;;;-10.00;97.30;;;;;;4942567;29;20282;-86
2024/01/09 07:40:36;;;;;;;1.53;1.43;;;-10.00;97.30;;;;;;4928627;29;20189;-87
2024/01/09 07:43:02;;;;;;;1.20;1.10;;;-9.90;97.30;;;;;;4936232;29;20203;-86
2024/01/09 07:45:30;;;;;;;3.80;1.53;;;-10.00;97.30;;;;;;4944131;29;20423;-87
2024/01/09 07:47:56;;;;;;;2.70;2.50;;;-9.90;97.30;;;;;;4939160;29;20290;-87
2024/01/09 07:50:22;;;;;;;1.83;1.73;;;-9.90;97.30;;;;;;4936418;29;20556;-85
2024/01/09 07:52:47;;;;;;;1.87;1.77;;;-9.90;97.30;;;;;;4935609;29;20184;-85
2024/01/09 07:55:13;;;;;;;1.57;1.47;;;-9.80;97.30;;;;;;4939718;29;20865;-87
2024/01/09 07:57:38;;;;;;;1.70;1.60;;;-9.80;97.30;;;;;;4944381;29;20675;-87
2024/01/09 08:00:05;;;;;;;2.80;2.60;;;-9.80;97.30;;;;;;4936116;29;20190;-86
2024/01/09 08:02:30;;;;;;;2.30;2.10;;;-9.70;97.30;;;;;;4935940;29;20248;-86
2024/01/09 08:04:56;;;;;;;1.20;1.10;;;-9.70;97.30;;;;;;4938483;29;20431;-85
2024/01/09 08:07:21;;;;;;;1.40;1.30;;;-9.70;97.30;;;;;;4943422;29;20239;-86
2024/01/09 08:09:47;;;;;;;1.30;1.20;;;-9.60;97.30;;;;;;4933715;29;20554;-86
2024/01/09 08:12:12;;;;;;;3.50;2.07;;;-9.60;97.30;;;;;;4941269;29;20691;-85
2024/01/09 08:14:38;;;;;;;1.80;1.70;;;-9.60;97.30;;;;;;4931160;29;20200;-86
2024/01/09 08:17:03;;;;;;;1.30;1.20;;;-9.50;97.30;;;;;;4947795;28;20603;-86
2024/01/09 08:19:29;;;;;;;3.00;2.80;;;-9.40;97.30;;;;;;4936654;29;20186;-86
2024/01/09 08:21:55;;;;;;;11.53;3.10;;;-9.30;97.30;;;;;;4946607;29;20199;-86
2024/01/09 08:24:21;;;;;;;1.80;1.70;;;-9.30;97.30;;;;;;4940425;29;20184;-87
2024/01/09 08:26:48;;;;;;;2.13;1.97;;;-9.30;97.30;;;;;;4938033;29;20655;-86
2024/01/09 08:29:16;;;;;;;1.20;1.10;;;-9.30;97.30;;;;;;4933460;29;20428;-86
2024/01/09 08:31:48;;;;;;;1.90;1.80;;;-9.30;97.30;;;;;;4942202;28;20454;-86
2024/01/09 08:34:15;;;;;;;2.83;2.63;;;-9.20;97.30;;;;;;4942823;28;20454;-87
2024/01/09 08:36:43;;;;;;;1.43;1.33;;;-9.30;97.30;;;;;;4946099;29;20427;-87
2024/01/09 08:39:17;;;;;;;1.30;1.20;;;-9.20;97.30;;;;;;4944447;29;20430;-86
2024/01/09 08:41:43;;;;;;;5.10;1.60;;;-9.10;97.30;;;;;;4931526;29;20877;-86
2024/01/09 08:44:08;;;;;;;1.40;1.30;;;-8.90;97.30;;;;;;4936110;29;20694;-86
2024/01/09 08:46:34;;;;;;;2.70;2.50;;;-8.90;97.30;;;;;;4930074;29;20255;-86
2024/01/09 08:49:00;;;;;;;1.50;1.40;;;-8.80;97.30;;;;;;4938929;29;20184;-86
2024/01/09 08:51:27;;;;;;;7.67;2.23;;;-8.80;97.30;;;;;;4940630;29;20227;-86
2024/01/09 08:53:54;;;;;;;1.10;1.00;;;-8.80;97.30;;;;;;4931500;29;20511;-87
2024/01/09 08:56:20;;;;;;;1.13;1.03;;;-8.80;97.30;;;;;;4937397;29;20435;-86
2024/01/09 08:58:45;;;;;;;4.23;3.97;;;-8.80;97.30;;;;;;4938678;29;20803;-86
2024/01/09 09:01:11;;;;;;;3.23;3.03;;;-8.80;97.30;;;;;;4945009;29;20248;-86
2024/01/09 09:03:37;;;;;;;1.20;1.10;;;-8.80;97.30;;;;;;4942094;29;20196;-84
2024/01/09 09:06:02;;;;;;;1.50;1.40;;;-8.80;97.30;;;;;;4937236;29;20215;-84
2024/01/09 09:08:28;;;;;;;3.10;2.90;;;-8.70;97.30;;;;;;4937390;29;20192;-88
2024/01/09 09:10:54;;;;;;;4.53;2.40;;;-8.60;97.30;;;;;;4936509;29;20208;-87
2024/01/09 09:13:19;;;;;;;1.20;1.10;;;-8.50;97.30;;;;;;4933694;29;20427;-86
2024/01/09 09:15:44;;;;;;;8.13;2.53;;;-8.50;97.30;;;;;;4927940;29;20185;-86
2024/01/09 09:18:10;;;;;;;2.03;1.90;;;-8.40;97.30;;;;;;4933027;29;20188;-87
2024/01/09 09:20:36;;;;;;;1.53;1.43;;;-8.40;97.30;;;;;;4937107;29;20267;-86
2024/01/09 09:23:02;;;;;;;1.57;1.47;;;-8.30;97.30;;;;;;4927130;29;20649;-85
2024/01/09 09:25:28;;;;;;;2.83;2.63;;;-8.20;97.30;;;;;;4919161;29;20418;-88
2024/01/09 09:27:54;;;;;;;1.43;1.33;;;-8.20;97.30;;;;;;4926548;29;21020;-86
2024/01/09 09:30:20;;;;;;;2.23;2.03;;;-8.10;97.30;;;;;;4918324;29;20276;-86
2024/01/09 09:32:45;;;;;;;2.37;2.13;;;-8.10;97.30;;;;;;4944432;29;20485;-87
2024/01/09 09:35:11;;;;;;;2.77;2.57;;;-8.00;97.30;;;;;;4939141;29;20190;-86
2024/01/09 09:37:36;;;;;;;3.53;3.33;;;-7.90;97.30;;;;;;4928935;29;20198;-86
2024/01/09 09:40:03;;;;;;;2.23;1.90;;;-7.90;97.30;;;;;;4937922;29;20299;-81
2024/01/09 09:42:31;;;;;;;8.83;2.80;;;-7.80;97.30;;;;;;4940710;29;20307;-86
2024/01/09 09:45:00;;;;;;;1.50;1.40;;;-7.70;97.30;;;;;;4941531;29;20461;-87
2024/01/09 09:47:26;;;;;;;2.63;2.43;;;-7.70;97.30;;;;;;4933752;29;20474;-85
2024/01/09 09:49:53;;;;;;;5.17;2.17;;;-7.60;97.30;;;;;;4923087;29;20497;-86
2024/01/09 09:52:21;;;;;;;1.40;1.30;;;-7.60;97.30;;;;;;4936716;29;20550;-86
2024/01/09 09:54:49;;;;;;;12.30;4.10;;;-7.50;97.30;;;;;;4931936;29;20441;-86
2024/01/09 09:57:16;;;;;;;1.40;1.30;;;-7.40;97.30;;;;;;4939134;29;20500;-85
2024/01/09 09:59:44;;;;;;;1.97;1.87;;;-7.50;97.30;;;;;;4936801;29;20981;-87
2024/01/09 10:02:20;;;;;;;2.07;1.93;;;-7.50;97.30;;;;;;4930926;29;21082;-86
2024/01/09 10:04:47;;;;;;;3.33;3.13;;;-7.40;97.30;;;;;;4935670;29;20524;-86
2024/01/09 10:07:16;;;;;;;2.23;2.03;;;-7.20;97.30;;;;;;4935233;29;20494;-86
2024/01/09 10:09:46;;;;;;;1.20;1.10;;;-7.20;97.30;;;;;;4948018;29;20425;-86
2024/01/09 10:12:12;;;;;;;2.07;1.70;;;-7.10;97.30;;;;;;4939948;28;20564;-86
2024/01/09 10:14:37;;;;;;;2.63;2.43;;;-7.10;97.30;;;;;;4941750;29;20446;-87
2024/01/09 10:17:05;;;;;;;7.83;3.43;;;-7.00;97.30;;;;;;4933784;29;20189;-84
2024/01/09 10:19:30;;;;;;;3.77;3.53;;;-7.00;97.30;;;;;;4937230;29;20199;-88
2024/01/09 10:21:56;;;;;;;2.80;2.60;;;-7.00;97.30;;;;;;4948238;29;20449;-86
2024/01/09 10:24:21;;;;;;;1.67;1.57;;;-6.90;97.30;;;;;;4945656;29;20236;-87
2024/01/09 10:26:52;;;;;;;3.07;2.87;;;-6.80;97.30;;;;;;4953452;29;20313;-87
2024/01/09 10:29:19;;;;;;;5.70;2.23;;;-6.80;97.30;;;;;;4943543;29;20228;-87
2024/01/09 10:31:44;;;;;;;3.27;3.07;;;-6.80;97.30;;;;;;4932179;29;20478;-87
2024/01/09 10:34:10;;;;;;;4.70;2.73;;;-6.70;97.30;;;;;;4951428;29;20566;-87
2024/01/09 10:36:36;;;;;;;5.03;3.33;;;-6.70;97.30;;;;;;4930374;29;20280;-87
2024/01/09 10:39:06;;;;;;;2.53;1.70;;;-6.70;97.30;;;;;;4928997;29;20256;-87
2024/01/09 10:41:32;;;;;;;8.47;2.77;;;-6.50;97.30;;;;;;4943827;29;20206;-86
2024/01/09 10:44:01;;;;;;;1.67;1.57;;;-6.40;97.30;;;;;;4947676;29;20439;-87
2024/01/09 10:46:31;;;;;;;1.93;1.83;;;-6.30;97.30;;;;;;4940548;29;20470;-89
2024/01/09 10:48:57;;;;;;;1.40;1.30;;;-6.20;97.30;;;;;;4935604;29;20431;-87
2024/01/09 10:51:24;;;;;;;1.90;1.80;;;-6.30;97.30;;;;;;4936386;29;20456;-87
2024/01/09 10:53:53;;;;;;;3.83;1.93;;;-6.30;97.30;;;;;;4937130;29;20431;-87
2024/01/09 10:56:23;;;;;;;1.63;1.53;;;-6.30;97.30;;;;;;4935623;29;20485;-87
2024/01/09 10:58:50;;;;;;;4.70;4.33;;;-6.20;97.30;;;;;;4939396;29;20530;-87
2024/01/09 11:01:16;;;;;;;2.20;2.00;;;-6.10;97.30;;;;;;4928212;29;20496;-87
2024/01/09 11:03:42;;;;;;;1.97;1.87;;;-6.00;97.30;;;;;;4941370;29;20426;-88
2024/01/09 11:06:09;;;;;;;1.77;1.67;;;-5.90;97.30;;;;;;4934166;29;21008;-87
2024/01/09 11:08:35;;;;;;;1.77;1.67;;;-5.80;97.30;;;;;;4933665;29;20428;-87
2024/01/09 11:11:10;;;;;;;2.33;2.13;;;-5.70;97.30;;;;;;4933782;29;20457;-87
2024/01/09 11:13:39;;;;;;;1.20;1.10;;;-5.70;97.30;;;;;;4926578;29;20484;-87
2024/01/09 11:16:07;;;;;;;4.80;3.53;;;-5.50;97.30;;;;;;4931045;29;21007;-86
2024/01/09 11:18:34;;;;;;;1.60;1.50;;;-5.40;97.30;;;;;;4932757;29;20422;-87
2024/01/09 11:21:01;;;;;;;2.30;2.10;;;-5.40;97.30;;;;;;4926679;29;20434;-87
2024/01/09 11:23:51;;;;;;;7.60;3.20;;;-5.30;97.30;;;;;;4941830;29;20928;-87
2024/01/09 11:26:18;;;;;;;2.00;1.90;;;-5.20;97.30;;;;;;4938856;29;20469;-89
2024/01/09 11:28:45;;;;;;;2.23;2.03;;;-5.20;97.30;;;;;;4936741;28;20422;-87
2024/01/09 11:31:23;;;;;;;1.73;1.63;;;-5.00;97.30;;;;;;4944178;29;20444;-89
2024/01/09 11:33:51;;;;;;;2.63;2.43;;;-5.00;97.30;;;;;;4946218;29;20419;-89
2024/01/09 11:36:24;;;;;;;8.33;4.30;;;-4.90;97.30;;;;;;4953785;29;20508;-89
2024/01/09 11:38:53;;;;;;;2.70;2.50;;;-4.70;97.30;;;;;;4953702;29;20411;-89
2024/01/09 11:41:22;;;;;;;1.80;1.70;;;-4.60;97.30;;;;;;4948740;29;20468;-90
2024/01/09 11:44:02;;;;;;;3.50;3.03;;;-4.50;97.30;;;;;;4944510;29;20435;-87
2024/01/09 11:46:30;;;;;;;4.33;2.70;;;-4.30;97.30;;;;;;4941211;29;20491;-88
2024/01/09 11:48:56;;;;;;;2.50;2.30;;;-4.30;96.80;;;;;;4933829;29;20431;-88
2024/01/09 11:51:22;;;;;;;2.87;2.67;;;-4.20;96.60;;;;;;4930556;29;20455;-88
2024/01/09 11:53:49;;;;;;;20.53;2.83;;;-4.10;96.70;;;;;;4932861;29;20261;-88
2024/01/09 11:56:16;;;;;;;12.33;6.10;;;-4.00;96.40;;;;;;4938379;29;20436;-88
2024/01/09 11:58:45;;;;;;;2.00;1.90;;;-3.90;96.00;;;;;;4939132;29;20428;-88
2024/01/09 12:01:12;;;;;;;2.87;2.67;;;-3.90;95.40;;;;;;4942029;29;20533;-89
2024/01/09 12:03:37;;;;;;;4.13;3.37;;;-3.70;95.50;;;;;;4950207;29;20967;-88
2024/01/09 12:06:06;;;;;;;2.73;2.53;;;-3.60;95.00;;;;;;4944183;28;20495;-87
2024/01/09 12:08:33;;;;;;;2.23;1.97;;;;;;;;;;4936600;29;20244;-89
2024/01/09 12:10:59;;;;;;;4.30;3.47;;;-3.60;94.60;;;;;;4944072;29;20447;-88
2024/01/09 12:13:26;;;;;;;4.20;3.80;;;-3.60;94.60;;;;;;4940848;29;20699;-89
2024/01/09 12:15:51;;;;;;;9.17;3.97;;;-3.50;94.80;;;;;;4938510;29;20428;-87
2024/01/09 12:18:17;;;;;;;4.20;3.43;;;-3.60;94.10;;;;;;4940864;29;20438;-87
2024/01/09 12:20:42;;;;;;;1.37;1.27;;;-3.40;94.70;;;;;;4946581;29;20207;-88
2024/01/09 12:23:08;;;;;;;2.07;1.90;;;-3.40;94.00;;;;;;4934810;29;20601;-89
2024/01/09 12:25:35;;;;;;;2.33;2.13;;;-3.40;93.70;;;;;;4945049;29;20180;-88
2024/01/09 12:28:02;;;;;;;4.20;3.70;;;-3.20;93.80;;;;;;4947005;29;20350;-87
2024/01/09 12:30:28;;;;;;;4.23;3.97;;;-3.00;93.40;;;;;;4949723;29;20428;-88
2024/01/09 12:32:54;;;;;;;7.00;5.63;;;-2.80;92.90;;;;;;4942908;29;20496;-90
2024/01/09 12:35:20;;;;;;;4.07;3.87;;;-2.70;92.80;;;;;;4950756;29;20426;-87
2024/01/09 12:37:47;;;;;;;5.90;3.83;;;-2.70;92.10;;;;;;4951047;29;20948;-89
2024/01/09 12:40:16;;;;;;;15.40;3.10;;;-2.70;91.60;;;;;;4936715;29;20424;-89
2024/01/09 12:42:42;;;;;;;4.10;3.90;;;-2.70;92.00;;;;;;4946329;29;20549;-90
2024/01/09 12:45:10;;;;;;;3.87;3.07;;;-2.70;91.50;;;;;;4942154;29;20435;-88
2024/01/09 12:47:35;;;;;;;2.27;2.10;;;-2.60;91.70;;;;;;4941558;29;20218;-90
2024/01/09 12:50:03;;;;;;;8.53;3.13;;;-2.80;90.90;;;;;;4948385;29;20475;-89
2024/01/09 12:52:30;;;;;;;3.03;2.83;;;-2.70;91.20;;;;;;4940901;29;20688;-89
2024/01/09 12:54:55;;;;;;;8.80;2.33;;;-2.50;91.10;;;;;;4947093;29;20415;-89
2024/01/09 12:57:21;;;;;;;3.10;2.80;;;-2.40;90.90;;;;;;4929409;29;20440;-88
2024/01/09 12:59:48;;;;;;;1.90;1.80;;;-2.40;90.20;;;;;;4928232;29;20193;-87
2024/01/09 13:02:14;;;;;;;10.60;5.50;;;-2.50;90.10;;;;;;4938734;29;20268;-89
2024/01/09 13:04:40;;;;;;;13.33;4.97;;;-2.40;90.30;;;;;;4939590;29;20432;-89
2024/01/09 13:07:05;;;;;;;2.63;2.43;;;-2.30;90.30;;;;;;4932080;29;20215;-89
2024/01/09 13:09:31;;;;;;;3.87;3.37;;;-2.20;90.50;;;;;;4939852;29;20753;-89
2024/01/09 13:11:57;;;;;;;4.07;3.00;;;-2.10;90.10;;;;;;4938915;29;20724;-89
2024/01/09 13:14:24;;;;;;;5.10;3.43;;;-2.10;89.50;;;;;;4934754;29;20420;-89
2024/01/09 13:16:51;;;;;;;5.53;3.13;;;-2.00;89.60;;;;;;4940607;29;20831;-89
2024/01/09 13:19:18;;;;;;;1.60;1.50;;;-1.90;90.40;;;;;;4947334;29;20479;-89
2024/01/09 13:21:44;;;;;;;4.07;3.83;;;-1.80;90.00;;;;;;4956197;28;20509;-91
2024/01/09 13:24:10;;;;;;;4.00;3.80;;;-1.80;89.90;;;;;;4934587;29;21012;-89
2024/01/09 13:26:37;;;;;;;5.70;2.53;;;-1.80;89.50;;;;;;4950604;29;20497;-89
2024/01/09 13:29:03;;;;;;;2.70;2.53;;;-1.80;89.30;;;;;;4939956;29;20432;-89
2024/01/09 13:31:29;;;;;;;3.23;2.77;;;-1.80;89.10;;;;;;4939887;29;20451;-89
2024/01/09 13:33:55;;;;;;;4.47;3.03;;;-1.80;89.30;;;;;;4933040;29;20420;-90
2024/01/09 13:36:20;;;;;;;3.07;2.40;;;-1.80;88.80;;;;;;4945286;29;20872;-90
2024/01/09 13:38:46;;;;;;;3.83;3.63;;;-1.90;89.10;;;;;;4930591;29;20581;-89
2024/01/09 13:41:13;;;;;;;2.40;2.27;;;-1.90;88.90;;;;;;4922440;29;20258;-90
2024/01/09 13:43:39;;;;;;;2.17;2.00;;;-1.90;88.90;;;;;;4946586;29;20184;-89
2024/01/09 13:46:05;;;;;;;2.80;2.17;;;-2.00;88.90;;;;;;4938237;29;20431;-89
2024/01/09 13:48:31;;;;;;;5.77;5.47;;;-2.00;89.10;;;;;;4933308;29;20436;-90
2024/01/09 13:50:57;;;;;;;2.17;2.00;;;-1.90;89.50;;;;;;4920919;29;20601;-90
2024/01/09 13:53:22;;;;;;;2.70;2.50;;;-1.70;89.30;;;;;;4925775;29;20459;-89
2024/01/09 13:55:48;;;;;;;3.03;2.33;;;-1.50;89.20;;;;;;4934244;29;20207;-90
2024/01/09 13:58:14;;;;;;;6.37;2.40;;;-1.50;89.00;;;;;;4929339;29;20216;-90
2024/01/09 14:00:40;;;;;;;1.67;1.57;;;-1.60;88.70;;;;;;4937484;29;20191;-89
2024/01/09 14:03:05;;;;;;;4.30;3.10;;;-1.60;88.90;;;;;;4937139;29;20184;-89
2024/01/09 14:05:31;;;;;;;2.80;2.60;;;-1.70;88.90;;;;;;4937239;29;20202;-88
2024/01/09 14:07:57;;;;;;;4.33;3.73;;;-1.60;89.10;;;;;;4938175;29;20558;-91
2024/01/09 14:10:22;;;;;;;3.87;3.67;;;-1.70;88.80;;;;;;4931239;29;20430;-90
2024/01/09 14:12:48;;;;;;;2.80;2.60;;;-1.70;88.60;;;;;;4932912;29;20183;-90
2024/01/09 14:15:16;;;;;;;7.63;4.20;;;-1.80;88.60;;;;;;4936652;29;20180;-89
2024/01/09 14:17:42;;;;;;;4.10;2.40;;;-1.90;88.40;;;;;;4936580;29;20669;-90
2024/01/09 14:20:09;;;;;;;10.97;3.53;;;-1.70;88.90;;;;;;4928824;29;20424;-91
2024/01/09 14:22:35;;;;;;;2.93;2.73;;;-1.70;88.70;;;;;;4930657;29;20456;-89
2024/01/09 14:25:01;;;;;;;3.67;3.47;;;-1.80;88.70;;;;;;4925264;29;20440;-90
2024/01/09 14:27:28;;;;;;;3.17;2.97;;;-1.80;88.90;;;;;;4929222;29;20460;-90
2024/01/09 14:29:55;;;;;;;3.67;3.47;;;-1.70;88.90;;;;;;4934762;29;20176;-89
2024/01/09 14:32:20;;;;;;;4.83;3.37;;;-1.90;89.20;;;;;;4928507;29;20656;-89
2024/01/09 14:34:46;;;;;;;2.13;1.97;;;-2.10;89.30;;;;;;4943629;29;21245;-90
2024/01/09 14:37:13;;;;;;;10.73;3.20;;;-2.20;90.00;;;;;;4936433;29;20238;-89
2024/01/09 14:39:38;;;;;;;5.50;4.50;;;-2.60;90.00;;;;;;4936153;29;20619;-89
2024/01/09 14:42:04;;;;;;;3.30;2.27;;;-2.80;90.70;;;;;;4927605;29;20460;-89
2024/01/09 14:44:30;;;;;;;2.00;1.87;;;-3.10;91.50;;;;;;4934400;29;20689;-89
2024/01/09 14:47:00;;;;;;;2.40;1.73;;;-3.20;92.40;;;;;;4946741;29;21008;-89
2024/01/09 14:49:29;;;;;;;2.13;1.97;;;-3.40;92.60;;;;;;4935017;29;20412;-89
2024/01/09 14:51:54;;;;;;;2.93;2.77;;;-3.40;93.20;;;;;;4934523;29;20526;-87
2024/01/09 14:54:23;;;;;;;2.07;1.93;;;-3.40;93.50;;;;;;4938707;29;20936;-90
2024/01/09 14:56:49;;;;;;;3.63;2.00;;;-3.50;93.50;;;;;;4938655;29;20549;-89
2024/01/09 14:59:14;;;;;;;2.37;2.17;;;-3.60;93.70;;;;;;4937470;29;20427;-89
2024/01/09 15:01:40;;;;;;;2.63;2.33;;;-3.70;94.10;;;;;;4945331;29;20479;-89
2024/01/09 15:04:06;;;;;;;1.60;1.50;;;-3.90;94.40;;;;;;4928185;29;20188;-88
2024/01/09 15:06:32;;;;;;;30.43;6.37;;;-4.10;94.90;;;;;;4934558;29;20807;-89
2024/01/09 15:08:57;;;;;;;3.47;3.27;;;-4.30;95.40;;;;;;4935818;29;20474;-88
2024/01/09 15:11:23;;;;;;;2.70;2.50;;;-4.50;96.00;;;;;;4932374;29;20247;-89
2024/01/09 15:13:48;;;;;;;1.70;1.60;;;-4.60;96.60;;;;;;4932087;29;20186;-89
2024/01/09 15:16:14;;;;;;;3.43;2.30;;;-4.70;96.90;;;;;;4935459;29;20197;-89
2024/01/09 15:18:39;;;;;;;2.73;2.53;;;-4.70;97.20;;;;;;4932318;29;20279;-89
2024/01/09 15:21:05;;;;;;;8.23;3.57;;;-4.80;97.30;;;;;;4934771;29;20604;-90
2024/01/09 15:23:31;;;;;;;3.33;3.13;;;-4.90;97.30;;;;;;4926850;29;20263;-89
2024/01/09 15:25:56;;;;;;;6.93;3.10;;;-4.90;97.30;;;;;;4926762;29;20184;-87
2024/01/09 15:28:22;;;;;;;3.30;3.10;;;-4.90;97.30;;;;;;4924469;29;20424;-89
2024/01/09 15:30:47;;;;;;;1.60;1.50;;;-5.00;97.30;;;;;;4923743;29;20654;-90
2024/01/09 15:33:13;;;;;;;1.50;1.40;;;-5.00;97.30;;;;;;4928325;29;20207;-89
2024/01/09 15:35:39;;;;;;;3.33;2.77;;;-5.00;97.30;;;;;;4936650;29;20665;-89
2024/01/09 15:38:05;;;;;;;7.00;4.37;;;-5.10;97.30;;;;;;4945835;29;20187;-89
2024/01/09 15:40:32;;;;;;;1.77;1.67;;;-5.10;97.30;;;;;;4943373;29;20424;-89
2024/01/09 15:42:58;;;;;;;2.33;2.13;;;-5.10;97.30;;;;;;4948137;29;20209;-89
2024/01/09 15:45:24;;;;;;;2.23;2.13;;;-5.10;97.30;;;;;;4942884;29;20937;-89
2024/01/09 15:47:59;;;;;;;5.20;4.90;;;-5.20;97.30;;;;;;4943935;29;20530;-89
2024/01/09 15:50:24;;;;;;;12.80;3.47;;;-5.20;97.30;;;;;;4945113;29;20430;-90
2024/01/09 15:52:50;;;;;;;1.50;1.40;;;-5.30;97.30;;;;;;4937456;29;20449;-90
2024/01/09 15:55:16;;;;;;;2.73;2.53;;;-5.30;97.30;;;;;;4953753;29;20195;-90
2024/01/09 15:57:44;;;;;;;2.37;2.17;;;-5.30;97.30;;;;;;4942547;29;20206;-91
2024/01/09 16:00:14;;;;;;;8.60;2.03;;;-5.30;97.30;;;;;;4946591;29;20195;-91
2024/01/09 16:02:46;;;;;;;5.43;2.07;;;-5.40;97.30;;;;;;4964782;29;20467;-90
2024/01/09 16:05:11;;;;;;;6.03;2.33;;;-5.40;97.30;;;;;;4948893;29;20443;-90
2024/01/09 16:07:37;;;;;;;2.23;2.03;;;-5.40;97.30;;;;;;4940167;29;20484;-89
2024/01/09 16:10:03;;;;;;;3.17;2.90;;;-5.50;97.30;;;;;;4943595;29;20176;-89
2024/01/09 16:12:33;;;;;;;1.30;1.20;;;-5.50;97.30;;;;;;4953272;29;20428;-91
2024/01/09 16:14:59;;;;;;;7.73;2.97;;;-5.60;97.30;;;;;;4954333;29;20420;-88
2024/01/09 16:17:25;;;;;;;6.83;1.97;;;-5.60;97.30;;;;;;4933322;29;20440;-90
2024/01/09 16:19:50;;;;;;;1.60;1.50;;;-5.60;97.30;;;;;;4938954;29;20455;-88
2024/01/09 16:22:18;;;;;;;3.30;3.00;;;-5.60;97.30;;;;;;4929486;29;20220;-90
2024/01/09 16:24:44;;;;;;;18.03;2.97;;;-5.70;97.30;;;;;;4931318;29;20177;-88
2024/01/09 16:27:10;;;;;;;1.70;1.60;;;-5.70;97.30;;;;;;4925536;29;20518;-88
2024/01/09 16:29:35;;;;;;;2.53;2.33;;;-5.80;97.30;;;;;;4935194;29;20187;-89
2024/01/09 16:32:01;;;;;;;1.97;1.90;;;-5.90;97.30;;;;;;4935445;29;20447;-86
2024/01/09 16:34:27;;;;;;;3.90;3.10;;;-5.90;97.30;;;;;;4932379;29;20381;-89
2024/01/09 16:36:53;;;;;;;8.30;5.30;;;-5.90;97.30;;;;;;4916623;29;20184;-89
2024/01/09 16:39:19;;;;;;;2.50;2.00;;;-6.00;97.30;;;;;;4934234;29;20913;-89
2024/01/09 16:41:45;;;;;;;3.10;2.73;;;-6.10;97.30;;;;;;4934990;29;20813;-88
2024/01/09 16:44:11;;;;;;;1.83;1.73;;;-6.10;97.30;;;;;;4927520;29;20461;-88
2024/01/09 16:46:41;;;;;;;3.60;2.50;;;-6.20;97.30;;;;;;4935432;29;20478;-88
2024/01/09 16:49:06;;;;;;;4.73;2.90;;;-6.20;97.30;;;;;;4934355;29;20428;-89
2024/01/09 16:51:32;;;;;;;4.37;4.07;;;-6.20;97.30;;;;;;4933448;29;21060;-89
2024/01/09 16:53:59;;;;;;;4.93;2.37;;;-6.30;97.30;;;;;;4926013;29;20674;-88
2024/01/09 16:56:25;;;;;;;14.13;3.00;;;-6.30;97.30;;;;;;4934931;29;20184;-89
2024/01/09 16:58:52;;;;;;;1.90;1.80;;;-6.30;97.30;;;;;;4919931;29;20438;-88
2024/01/09 17:01:27;;;;;;;3.20;3.00;;;-6.30;97.30;;;;;;4924823;29;20559;-88
2024/01/09 17:03:54;;;;;;;4.03;2.70;;;-6.30;97.30;;;;;;4926486;29;20847;-88
2024/01/09 17:06:21;;;;;;;2.33;2.13;;;-6.40;97.30;;;;;;4913932;29;20472;-88
2024/01/09 17:08:46;;;;;;;2.27;2.07;;;-6.40;97.30;;;;;;4929128;29;20923;-90
2024/01/09 17:11:14;;;;;;;2.50;2.30;;;-6.40;97.30;;;;;;4934946;29;20451;-87
2024/01/09 17:13:40;;;;;;;4.80;2.90;;;-6.40;97.30;;;;;;4917184;29;20263;-88
2024/01/09 17:16:08;;;;;;;6.40;3.23;;;-6.50;97.30;;;;;;4933088;29;20435;-88
2024/01/09 17:18:35;;;;;;;2.63;2.43;;;-6.50;97.30;;;;;;4937137;29;20451;-88
2024/01/09 17:21:00;;;;;;;6.43;2.60;;;-6.50;97.30;;;;;;4935530;29;20523;-88
2024/01/09 17:23:26;;;;;;;3.33;3.13;;;-6.60;97.30;;;;;;4938782;29;20520;-88
2024/01/09 17:25:51;;;;;;;4.83;3.87;;;-6.60;97.30;;;;;;4948624;29;20183;-88
2024/01/09 17:28:17;;;;;;;5.10;3.17;;;-6.60;97.30;;;;;;4935141;29;20230;-88
2024/01/09 17:30:42;;;;;;;5.90;3.50;;;-6.70;97.30;;;;;;4935080;29;20282;-88
2024/01/09 17:33:09;;;;;;;6.70;3.30;;;-6.70;97.30;;;;;;4935322;29;20193;-88
2024/01/09 17:35:35;;;;;;;4.50;1.87;;;-6.70;97.30;;;;;;4942222;29;20180;-88
2024/01/09 17:38:00;;;;;;;3.40;3.20;;;-6.70;97.30;;;;;;4934925;29;20479;-88
2024/01/09 17:40:26;;;;;;;4.73;3.73;;;-6.70;97.30;;;;;;4934699;29;20435;-88
2024/01/09 17:42:51;;;;;;;5.97;2.30;;;-6.70;97.30;;;;;;4934467;29;20194;-88